Eckert, CO (81418)

8:51 AM MDT on August 30, 2015 (GMT -0600)
KCOAUSTI3 | | Change Station
CLOSE
Current Station
Personal Weather Station
Location: Austin, CO
Elevation: 5837 ft
Nearby Weather Stations

Elev 5837 ft 38.82 °N, 107.95 °W | Updated 8 seconds ago

Clear
Clear
74.8 °F
Feels Like 77 °F
N
0.0
Wind Variable Wind from NE

Today
High -- | Low -- °F
--% Chance of Precip.
Yesterday
High -- | Low -- °F
Precip. -- in
6:38 AM 7:45 PM
Full, 99% visible
Pressure 30.19 in
Visibility 10.0 miles
Clouds Clear
Heat Index 77 °F
Dew Point 47 °F
Humidity 37%
Rainfall 0.00 in
Snow Depth Not available.
UV 2 out of 12
Pollen 9.90 out of 12
Air Quality Not available.
Flu Activity Not available.
METAR KAJZ 301435Z AUTO 08005KT 10SM CLR 20/07 A3019 RMK AO2 T01980066
Pressure 30.19 in
Visibility 10.0 miles
Clouds Clear
Heat Index 77 °F
Dew Point 47 °F
Humidity 37%
Rainfall 0.00 in
Snow Depth Not available.
UV 2 out of 12
Pollen 9.90 out of 12
Air Quality Not available.
Flu Activity Not available.
METAR KAJZ 301435Z AUTO 08005KT 10SM CLR 20/07 A3019 RMK AO2 T01980066

10-Day Weather Forecast

×

Almanac

Astronomy

Aug. 30, 2015 Rise Set
Actual Time
Civil Twilight
Nautical Twilight
Astronomical Twilight
Moon
Length of Visible Light
Length of Day
Tomorrow will be .
, % of the Moon is Illuminated

Today's Extremes

State Highs State Lows

Community

WunderPhotos

Upload Photos

1,850,974 photos uploaded!

WunderBlogs® & News

Nearby

Air Quality

  Air Quality AQ Index Pollutant
Not available.

Snow Depth

Station Depth Elevation

Earthquake Activity

City Distance Mag. Time & Date
Minimum magnitude displayed is 2.5.

Coastal Water Temperatures

Place Temperature

Stations

Nearby Weather Stations

Station Location Temp. Windchill Dew Point Humidity Wind Precip. Elev Updated Type